DAL6 KMEM-KATL
Flight info
| Callsign | DAL6 |
|---|---|
| Flight time | N/A |
| Altitude | 35000 |
| Route | BBKNG7 KERMI HUTCC KNSAW RUSSA GLAVN2 |
| Aircraft | E75L/M-SDE3GILORVW/S |
Departure
| Time | 2026-05-07 00:30 |
|---|---|
| Airport | Memphis International Airport (KMEM) |
Arrival
| Time | N/A |
|---|---|
| Airport | Hartsfield Jackson Atlanta International Airport (KATL) |
| Time | Latitude | Longitude | Altitude | Speed | Heading |
|---|---|---|---|---|---|
| 2026-05-06 23:49 | 35.04140 | -89.97981 | 310 ft | 0 kts | 203° |
| 2026-05-07 00:20 | 35.04146 | -89.97978 | 310 ft | 2 kts | 201° |
| 2026-05-07 00:21 | 35.04164 | -89.97972 | 308 ft | 3 kts | 188° |
| 2026-05-07 00:21 | 35.04185 | -89.97971 | 311 ft | 3 kts | 171° |
| 2026-05-07 00:21 | 35.04204 | -89.97978 | 311 ft | 3 kts | 153° |
| 2026-05-07 00:21 | 35.04220 | -89.97993 | 310 ft | 3 kts | 136° |
| 2026-05-07 00:22 | 35.04234 | -89.98011 | 311 ft | 3 kts | 128° |
| 2026-05-07 00:22 | 35.04244 | -89.98026 | 309 ft | 1 kts | 134° |
| 2026-05-07 00:22 | 35.04245 | -89.98027 | 309 ft | 0 kts | 134° |
| 2026-05-07 00:25 | 35.04243 | -89.98025 | 311 ft | 1 kts | 135° |
| 2026-05-07 00:25 | 35.04218 | -89.97993 | 311 ft | 9 kts | 133° |
| 2026-05-07 00:25 | 35.04193 | -89.97907 | 312 ft | 8 kts | 90° |
| 2026-05-07 00:25 | 35.04171 | -89.97847 | 312 ft | 8 kts | 150° |
| 2026-05-07 00:26 | 35.04107 | -89.97836 | 312 ft | 11 kts | 181° |
| 2026-05-07 00:26 | 35.04014 | -89.97838 | 311 ft | 15 kts | 179° |
| 2026-05-07 00:26 | 35.03895 | -89.97834 | 308 ft | 19 kts | 179° |
| 2026-05-07 00:26 | 35.03740 | -89.97833 | 303 ft | 25 kts | 179° |
| 2026-05-07 00:27 | 35.03550 | -89.97828 | 301 ft | 29 kts | 179° |
| 2026-05-07 00:27 | 35.03340 | -89.97824 | 298 ft | 32 kts | 178° |
| 2026-05-07 00:27 | 35.03116 | -89.97818 | 301 ft | 32 kts | 180° |
| 2026-05-07 00:27 | 35.02887 | -89.97812 | 303 ft | 33 kts | 180° |
| 2026-05-07 00:28 | 35.02692 | -89.97809 | 302 ft | 26 kts | 178° |
| 2026-05-07 00:28 | 35.02574 | -89.97808 | 302 ft | 13 kts | 180° |
| 2026-05-07 00:28 | 35.02473 | -89.97805 | 298 ft | 17 kts | 180° |
| 2026-05-07 00:28 | 35.02414 | -89.97717 | 296 ft | 17 kts | 90° |
| 2026-05-07 00:29 | 35.02433 | -89.97568 | 293 ft | 16 kts | 40° |
| 2026-05-07 00:29 | 35.02602 | -89.97557 | 297 ft | 57 kts | 359° |
| 2026-05-07 00:30 | 35.05696 | -89.97652 | 1873 ft | 194 kts | 358° |
| 2026-05-07 00:30 | 35.07139 | -89.97626 | 2009 ft | 218 kts | 15° |
| 2026-05-07 00:30 | 35.08529 | -89.97012 | 2043 ft | 209 kts | 25° |
| 2026-05-07 00:30 | 35.09825 | -89.96148 | 1973 ft | 217 kts | 31° |
| 2026-05-07 00:31 | 35.11148 | -89.95125 | 2130 ft | 249 kts | 35° |
| 2026-05-07 00:31 | 35.12403 | -89.93541 | 3406 ft | 262 kts | 57° |
| 2026-05-07 00:31 | 35.13130 | -89.91447 | 4736 ft | 280 kts | 73° |
| 2026-05-07 00:31 | 35.13518 | -89.88935 | 4431 ft | 322 kts | 83° |
| 2026-05-07 00:32 | 35.13526 | -89.86185 | 4375 ft | 311 kts | 94° |
| 2026-05-07 00:32 | 35.13207 | -89.83808 | 5251 ft | 263 kts | 107° |
| 2026-05-07 00:32 | 35.12554 | -89.81834 | 5472 ft | 247 kts | 114° |
| 2026-05-07 00:32 | 35.11920 | -89.79845 | 5409 ft | 254 kts | 111° |
| 2026-05-07 00:33 | 35.11316 | -89.77772 | 5661 ft | 265 kts | 109° |
| 2026-05-07 00:33 | 35.10686 | -89.75520 | 5538 ft | 288 kts | 111° |
| 2026-05-07 00:33 | 35.09942 | -89.73177 | 5563 ft | 303 kts | 116° |
| 2026-05-07 00:33 | 35.09159 | -89.70843 | 6602 ft | 302 kts | 111° |
| 2026-05-07 00:34 | 35.08498 | -89.68416 | 8241 ft | 303 kts | 111° |
| 2026-05-07 00:34 | 35.07844 | -89.65909 | 9646 ft | 318 kts | 111° |
| 2026-05-07 00:34 | 35.07158 | -89.63300 | 10974 ft | 325 kts | 112° |
| 2026-05-07 00:34 | 35.06517 | -89.60643 | 12370 ft | 331 kts | 112° |
| 2026-05-07 00:35 | 35.05589 | -89.58013 | 13336 ft | 345 kts | 123° |
| 2026-05-07 00:35 | 35.04524 | -89.55311 | 14290 ft | 362 kts | 122° |
| 2026-05-07 00:35 | 35.03435 | -89.52466 | 15205 ft | 378 kts | 123° |
| 2026-05-07 00:35 | 35.02318 | -89.49550 | 16142 ft | 390 kts | 123° |
| 2026-05-07 00:36 | 35.01158 | -89.46517 | 17217 ft | 398 kts | 124° |
| 2026-05-07 00:36 | 34.99972 | -89.43423 | 18258 ft | 407 kts | 124° |
| 2026-05-07 00:36 | 34.98758 | -89.40267 | 19125 ft | 414 kts | 124° |
| 2026-05-07 00:36 | 34.97524 | -89.37056 | 19988 ft | 422 kts | 124° |
| 2026-05-07 00:37 | 34.96271 | -89.33791 | 20877 ft | 428 kts | 124° |
| 2026-05-07 00:37 | 34.95430 | -89.31601 | 21446 ft | 432 kts | 123° |
| 2026-05-07 00:37 | 34.94143 | -89.28256 | 22286 ft | 438 kts | 123° |
| 2026-05-07 00:37 | 34.92848 | -89.24860 | 23104 ft | 446 kts | 122° |
| 2026-05-07 00:38 | 34.91638 | -89.21336 | 23823 ft | 456 kts | 116° |
| 2026-05-07 00:38 | 34.90831 | -89.17534 | 24478 ft | 467 kts | 108° |
| 2026-05-07 00:38 | 34.90154 | -89.13639 | 25144 ft | 472 kts | 108° |
| 2026-05-07 00:38 | 34.89485 | -89.09708 | 25793 ft | 476 kts | 108° |
| 2026-05-07 00:39 | 34.88812 | -89.05741 | 26426 ft | 481 kts | 108° |
| 2026-05-07 00:39 | 34.88123 | -89.01701 | 26658 ft | 497 kts | 108° |
| 2026-05-07 00:39 | 34.87408 | -88.97497 | 26677 ft | 516 kts | 107° |
| 2026-05-07 00:39 | 34.86667 | -88.93141 | 26707 ft | 534 kts | 107° |
| 2026-05-07 00:40 | 34.85900 | -88.88647 | 26761 ft | 549 kts | 107° |
| 2026-05-07 00:40 | 34.85118 | -88.84062 | 27167 ft | 553 kts | 107° |
| 2026-05-07 00:40 | 34.84339 | -88.79513 | 28052 ft | 548 kts | 108° |
| 2026-05-07 00:40 | 34.83554 | -88.74965 | 28520 ft | 552 kts | 108° |
| 2026-05-07 00:41 | 34.82762 | -88.70379 | 28963 ft | 555 kts | 108° |
| 2026-05-07 00:41 | 34.81965 | -88.65764 | 29474 ft | 557 kts | 108° |
| 2026-05-07 00:41 | 34.81177 | -88.61212 | 30058 ft | 556 kts | 108° |
| 2026-05-07 00:41 | 34.80375 | -88.56592 | 30524 ft | 557 kts | 108° |
| 2026-05-07 00:42 | 34.79571 | -88.51978 | 30949 ft | 558 kts | 108° |
| 2026-05-07 00:42 | 34.78763 | -88.47347 | 31371 ft | 559 kts | 109° |
| 2026-05-07 00:42 | 34.77952 | -88.42708 | 31733 ft | 562 kts | 109° |
| 2026-05-07 00:42 | 34.77136 | -88.38055 | 32130 ft | 563 kts | 109° |
| 2026-05-07 00:43 | 34.76317 | -88.33394 | 32527 ft | 564 kts | 109° |
| 2026-05-07 00:43 | 34.75500 | -88.28753 | 32835 ft | 567 kts | 109° |
| 2026-05-07 00:43 | 34.73812 | -88.19242 | 32949 ft | 583 kts | 110° |
| 2026-05-07 00:44 | 34.73038 | -88.14420 | 32943 ft | 571 kts | 105° |
| 2026-05-07 00:44 | 34.72387 | -88.09753 | 32928 ft | 549 kts | 107° |
| 2026-05-07 00:44 | 34.71157 | -88.00675 | 32906 ft | 548 kts | 106° |
| 2026-05-07 00:45 | 34.69909 | -87.91444 | 32971 ft | 558 kts | 106° |
| 2026-05-07 00:45 | 34.68632 | -87.82070 | 32969 ft | 567 kts | 106° |
| 2026-05-07 00:46 | 34.67334 | -87.72597 | 32969 ft | 575 kts | 106° |
| 2026-05-07 00:46 | 34.66003 | -87.62944 | 32963 ft | 582 kts | 106° |
| 2026-05-07 00:47 | 34.64655 | -87.53192 | 32974 ft | 588 kts | 105° |
| 2026-05-07 00:47 | 34.63970 | -87.48313 | 32945 ft | 577 kts | 106° |
| 2026-05-07 00:47 | 34.63329 | -87.43616 | 32926 ft | 550 kts | 109° |
| 2026-05-07 00:48 | 34.62546 | -87.39159 | 32938 ft | 537 kts | 109° |
| 2026-05-07 00:48 | 34.61756 | -87.34690 | 32963 ft | 544 kts | 110° |
| 2026-05-07 00:48 | 34.60132 | -87.25620 | 32990 ft | 549 kts | 109° |
| 2026-05-07 00:49 | 34.58503 | -87.16574 | 32998 ft | 548 kts | 109° |
| 2026-05-07 00:49 | 34.56867 | -87.07524 | 32995 ft | 548 kts | 109° |